sensor_id;sensor_type;location;lat;lon;timestamp;pressure;altitude;pressure_sealevel;temperature;humidity
36092;BME280;22147;52.388;13.390;2023-04-07T00:00:05;101398.28;;;-0.70;100.00
36092;BME280;22147;52.388;13.390;2023-04-07T00:02:37;101391.06;;;-0.76;100.00
36092;BME280;22147;52.388;13.390;2023-04-07T00:05:07;101395.53;;;-0.82;100.00
36092;BME280;22147;52.388;13.390;2023-04-07T00:07:37;101391.84;;;-0.87;100.00
36092;BME280;22147;52.388;13.390;2023-04-07T00:10:25;101392.78;;;-0.93;100.00
36092;BME280;22147;52.388;13.390;2023-04-07T00:12:56;101391.59;;;-0.97;100.00
36092;BME280;22147;52.388;13.390;2023-04-07T00:15:27;101396.34;;;-1.05;100.00
36092;BME280;22147;52.388;13.390;2023-04-07T00:17:57;101383.63;;;-1.11;100.00
36092;BME280;22147;52.388;13.390;2023-04-07T00:20:28;101393.34;;;-1.15;100.00
36092;BME280;22147;52.388;13.390;2023-04-07T00:22:58;101385.28;;;-1.21;100.00
36092;BME280;22147;52.388;13.390;2023-04-07T00:25:28;101392.25;;;-1.26;100.00
36092;BME280;22147;52.388;13.390;2023-04-07T00:27:58;101391.88;;;-1.29;100.00
36092;BME280;22147;52.388;13.390;2023-04-07T00:30:29;101392.59;;;-1.34;100.00
36092;BME280;22147;52.388;13.390;2023-04-07T00:33:02;101400.03;;;-1.41;100.00
36092;BME280;22147;52.388;13.390;2023-04-07T00:35:32;101396.13;;;-1.45;100.00
36092;BME280;22147;52.388;13.390;2023-04-07T00:38:02;101391.38;;;-1.50;100.00
36092;BME280;22147;52.388;13.390;2023-04-07T00:40:33;101391.59;;;-1.51;100.00
36092;BME280;22147;52.388;13.390;2023-04-07T00:43:03;101386.97;;;-1.51;100.00
36092;BME280;22147;52.388;13.390;2023-04-07T00:45:35;101382.59;;;-1.52;100.00
36092;BME280;22147;52.388;13.390;2023-04-07T00:48:06;101381.16;;;-1.54;100.00
36092;BME280;22147;52.388;13.390;2023-04-07T00:50:36;101388.38;;;-1.60;100.00
36092;BME280;22147;52.388;13.390;2023-04-07T00:53:07;101385.50;;;-1.65;100.00
36092;BME280;22147;52.388;13.390;2023-04-07T00:55:38;101379.69;;;-1.69;100.00
36092;BME280;22147;52.388;13.390;2023-04-07T00:58:08;101379.91;;;-1.70;100.00
36092;BME280;22147;52.388;13.390;2023-04-07T01:01:08;101371.34;;;-1.74;100.00
36092;BME280;22147;52.388;13.390;2023-04-07T01:04:08;101373.47;;;-1.76;100.00
36092;BME280;22147;52.388;13.390;2023-04-07T01:06:52;101366.59;;;-1.78;100.00
36092;BME280;22147;52.388;13.390;2023-04-07T01:09:40;101360.34;;;-1.79;100.00
36092;BME280;22147;52.388;13.390;2023-04-07T01:12:51;101357.00;;;-1.81;100.00
36092;BME280;22147;52.388;13.390;2023-04-07T01:15:30;101359.13;;;-1.83;100.00
36092;BME280;22147;52.388;13.390;2023-04-07T01:18:12;101358.53;;;-1.85;100.00
36092;BME280;22147;52.388;13.390;2023-04-07T01:20:55;101355.22;;;-1.87;100.00
36092;BME280;22147;52.388;13.390;2023-04-07T01:26:38;101349.38;;;-1.91;100.00
36092;BME280;22147;52.388;13.390;2023-04-07T01:29:38;101348.78;;;-1.93;100.00
36092;BME280;22147;52.388;13.390;2023-04-07T01:32:18;101346.31;;;-1.94;100.00
36092;BME280;22147;52.388;13.390;2023-04-07T01:34:54;101350.91;;;-1.95;100.00
36092;BME280;22147;52.388;13.390;2023-04-07T01:37:27;101349.25;;;-1.96;100.00
36092;BME280;22147;52.388;13.390;2023-04-07T01:39:58;101344.88;;;-1.97;100.00
36092;BME280;22147;52.388;13.390;2023-04-07T01:42:31;101345.94;;;-1.98;100.00
36092;BME280;22147;52.388;13.390;2023-04-07T01:45:05;101344.28;;;-1.99;100.00
36092;BME280;22147;52.388;13.390;2023-04-07T01:47:38;101330.06;;;-2.01;100.00
36092;BME280;22147;52.388;13.390;2023-04-07T01:50:11;101340.09;;;-2.01;100.00
36092;BME280;22147;52.388;13.390;2023-04-07T01:52:42;101345.31;;;-2.00;100.00
36092;BME280;22147;52.388;13.390;2023-04-07T01:55:13;101336.56;;;-2.02;100.00
36092;BME280;22147;52.388;13.390;2023-04-07T01:57:43;101330.28;;;-2.02;100.00
36092;BME280;22147;52.388;13.390;2023-04-07T02:00:14;101333.00;;;-2.02;100.00
36092;BME280;22147;52.388;13.390;2023-04-07T02:02:51;101338.66;;;-2.04;100.00
36092;BME280;22147;52.388;13.390;2023-04-07T02:05:30;101341.63;;;-2.06;100.00
36092;BME280;22147;52.388;13.390;2023-04-07T02:08:07;101338.88;;;-2.06;100.00
36092;BME280;22147;52.388;13.390;2023-04-07T02:10:38;101336.16;;;-2.06;100.00
36092;BME280;22147;52.388;13.390;2023-04-07T02:13:12;101331.59;;;-2.05;100.00
36092;BME280;22147;52.388;13.390;2023-04-07T02:15:49;101331.31;;;-2.03;100.00
36092;BME280;22147;52.388;13.390;2023-04-07T02:18:22;101328.38;;;-2.02;100.00
36092;BME280;22147;52.388;13.390;2023-04-07T02:20:57;101329.00;;;-2.00;100.00
36092;BME280;22147;52.388;13.390;2023-04-07T02:23:29;101328.78;;;-1.98;100.00
36092;BME280;22147;52.388;13.390;2023-04-07T02:26:00;101323.66;;;-1.95;100.00
36092;BME280;22147;52.388;13.390;2023-04-07T02:28:30;101329.97;;;-1.94;100.00
36092;BME280;22147;52.388;13.390;2023-04-07T02:31:00;101330.56;;;-1.92;100.00
36092;BME280;22147;52.388;13.390;2023-04-07T02:33:31;101327.59;;;-1.91;100.00
36092;BME280;22147;52.388;13.390;2023-04-07T02:35:59;101319.22;;;-1.89;100.00
36092;BME280;22147;52.388;13.390;2023-04-07T02:38:27;101314.84;;;-1.90;100.00
36092;BME280;22147;52.388;13.390;2023-04-07T02:40:56;101321.69;;;-1.88;100.00
36092;BME280;22147;52.388;13.390;2023-04-07T02:43:24;101319.38;;;-1.84;100.00
36092;BME280;22147;52.388;13.390;2023-04-07T02:45:53;101314.50;;;-1.82;100.00
36092;BME280;22147;52.388;13.390;2023-04-07T02:48:21;101314.03;;;-1.79;100.00
36092;BME280;22147;52.388;13.390;2023-04-07T02:50:49;101311.44;;;-1.74;100.00
36092;BME280;22147;52.388;13.390;2023-04-07T02:53:18;101316.88;;;-1.74;100.00
36092;BME280;22147;52.388;13.390;2023-04-07T02:55:46;101322.34;;;-1.74;100.00
36092;BME280;22147;52.388;13.390;2023-04-07T02:58:15;101317.75;;;-1.73;100.00
36092;BME280;22147;52.388;13.390;2023-04-07T03:00:43;101317.13;;;-1.75;100.00
36092;BME280;22147;52.388;13.390;2023-04-07T03:03:12;101321.72;;;-1.76;100.00
36092;BME280;22147;52.388;13.390;2023-04-07T03:05:40;101313.13;;;-1.73;100.00
36092;BME280;22147;52.388;13.390;2023-04-07T03:08:08;101313.13;;;-1.73;100.00
36092;BME280;22147;52.388;13.390;2023-04-07T03:10:40;101317.75;;;-1.73;100.00
36092;BME280;22147;52.388;13.390;2023-04-07T03:13:08;101317.75;;;-1.73;100.00
36092;BME280;22147;52.388;13.390;2023-04-07T03:15:38;101322.94;;;-1.72;100.00
36092;BME280;22147;52.388;13.390;2023-04-07T03:18:09;101309.31;;;-1.72;100.00
36092;BME280;22147;52.388;13.390;2023-04-07T03:20:40;101310.75;;;-1.69;100.00
36092;BME280;22147;52.388;13.390;2023-04-07T03:23:11;101304.03;;;-1.67;100.00
36092;BME280;22147;52.388;13.390;2023-04-07T03:25:42;101302.72;;;-1.64;100.00
36092;BME280;22147;52.388;13.390;2023-04-07T03:28:14;101302.00;;;-1.59;100.00
36092;BME280;22147;52.388;13.390;2023-04-07T03:30:44;101302.16;;;-1.54;100.00
36092;BME280;22147;52.388;13.390;2023-04-07T03:33:15;101306.31;;;-1.52;100.00
36092;BME280;22147;52.388;13.390;2023-04-07T03:35:45;101295.53;;;-1.47;100.00
36092;BME280;22147;52.388;13.390;2023-04-07T03:38:15;101285.00;;;-1.43;100.00
36092;BME280;22147;52.388;13.390;2023-04-07T03:40:45;101296.25;;;-1.39;100.00
36092;BME280;22147;52.388;13.390;2023-04-07T03:43:15;101289.50;;;-1.37;100.00
36092;BME280;22147;52.388;13.390;2023-04-07T03:45:46;101290.69;;;-1.33;100.00
36092;BME280;22147;52.388;13.390;2023-04-07T03:48:16;101284.78;;;-1.30;100.00
36092;BME280;22147;52.388;13.390;2023-04-07T03:50:47;101295.81;;;-1.25;100.00
36092;BME280;22147;52.388;13.390;2023-04-07T03:53:17;101292.16;;;-1.18;100.00
36092;BME280;22147;52.388;13.390;2023-04-07T03:55:48;101287.63;;;-1.13;100.00
36092;BME280;22147;52.388;13.390;2023-04-07T03:58:19;101288.59;;;-1.07;100.00
36092;BME280;22147;52.388;13.390;2023-04-07T04:00:50;101292.28;;;-1.01;100.00
36092;BME280;22147;52.388;13.390;2023-04-07T04:03:20;101292.00;;;-1.00;100.00
36092;BME280;22147;52.388;13.390;2023-04-07T04:05:50;101287.75;;;-0.96;100.00
36092;BME280;22147;52.388;13.390;2023-04-07T04:08:21;101293.06;;;-0.89;100.00
36092;BME280;22147;52.388;13.390;2023-04-07T04:10:51;101290.72;;;-0.86;100.00
36092;BME280;22147;52.388;13.390;2023-04-07T04:13:21;101294.63;;;-0.82;100.00
36092;BME280;22147;52.388;13.390;2023-04-07T04:15:51;101296.25;;;-0.80;100.00
36092;BME280;22147;52.388;13.390;2023-04-07T04:18:22;101292.72;;;-0.81;100.00
36092;BME280;22147;52.388;13.390;2023-04-07T04:20:52;101295.81;;;-0.77;100.00
36092;BME280;22147;52.388;13.390;2023-04-07T04:23:22;101295.31;;;-0.74;100.00
36092;BME280;22147;52.388;13.390;2023-04-07T04:25:52;101299.50;;;-0.72;100.00
36092;BME280;22147;52.388;13.390;2023-04-07T04:28:22;101293.19;;;-0.72;100.00
36092;BME280;22147;52.388;13.390;2023-04-07T04:30:53;101292.13;;;-0.71;100.00
36092;BME280;22147;52.388;13.390;2023-04-07T04:33:23;101288.31;;;-0.70;100.00
36092;BME280;22147;52.388;13.390;2023-04-07T04:35:53;101291.16;;;-0.65;100.00
36092;BME280;22147;52.388;13.390;2023-04-07T04:38:23;101290.91;;;-0.64;100.00
36092;BME280;22147;52.388;13.390;2023-04-07T04:40:54;101293.41;;;-0.62;100.00
36092;BME280;22147;52.388;13.390;2023-04-07T04:43:24;101294.50;;;-0.63;100.00
36092;BME280;22147;52.388;13.390;2023-04-07T04:45:55;101303.28;;;-0.61;100.00
36092;BME280;22147;52.388;13.390;2023-04-07T04:48:25;101296.50;;;-0.58;100.00
36092;BME280;22147;52.388;13.390;2023-04-07T04:50:56;101296.84;;;-0.55;100.00
36092;BME280;22147;52.388;13.390;2023-04-07T04:53:26;101305.97;;;-0.49;100.00
36092;BME280;22147;52.388;13.390;2023-04-07T04:55:56;101300.84;;;-0.46;100.00
36092;BME280;22147;52.388;13.390;2023-04-07T04:58:26;101297.16;;;-0.39;100.00
36092;BME280;22147;52.388;13.390;2023-04-07T05:00:56;101305.44;;;-0.34;100.00
36092;BME280;22147;52.388;13.390;2023-04-07T05:03:28;101306.97;;;-0.27;100.00
36092;BME280;22147;52.388;13.390;2023-04-07T05:05:59;101309.34;;;-0.18;100.00
36092;BME280;22147;52.388;13.390;2023-04-07T05:08:29;101310.59;;;-0.09;100.00
36092;BME280;22147;52.388;13.390;2023-04-07T05:10:59;101310.00;;;0.01;100.00
36092;BME280;22147;52.388;13.390;2023-04-07T05:13:30;101303.88;;;0.10;100.00
36092;BME280;22147;52.388;13.390;2023-04-07T05:16:00;101315.00;;;0.20;100.00
36092;BME280;22147;52.388;13.390;2023-04-07T05:18:30;101312.47;;;0.31;100.00
36092;BME280;22147;52.388;13.390;2023-04-07T05:21:01;101310.16;;;0.39;100.00
36092;BME280;22147;52.388;13.390;2023-04-07T05:23:31;101308.94;;;0.47;100.00
36092;BME280;22147;52.388;13.390;2023-04-07T05:26:01;101310.41;;;0.55;100.00
36092;BME280;22147;52.388;13.390;2023-04-07T05:28:31;101313.00;;;0.62;100.00
36092;BME280;22147;52.388;13.390;2023-04-07T05:31:01;101310.13;;;0.68;100.00
36092;BME280;22147;52.388;13.390;2023-04-07T05:33:33;101310.69;;;0.70;100.00
36092;BME280;22147;52.388;13.390;2023-04-07T05:36:01;101310.44;;;0.72;100.00
36092;BME280;22147;52.388;13.390;2023-04-07T05:38:29;101311.28;;;0.72;100.00
36092;BME280;22147;52.388;13.390;2023-04-07T05:40:58;101314.00;;;0.72;100.00
36092;BME280;22147;52.388;13.390;2023-04-07T05:43:26;101306.97;;;0.76;100.00
36092;BME280;22147;52.388;13.390;2023-04-07T05:45:56;101316.59;;;0.79;100.00
36092;BME280;22147;52.388;13.390;2023-04-07T05:48:26;101312.00;;;0.85;100.00
36092;BME280;22147;52.388;13.390;2023-04-07T05:50:55;101316.25;;;0.92;100.00
36092;BME280;22147;52.388;13.390;2023-04-07T05:53:23;101304.88;;;1.00;100.00
36092;BME280;22147;52.388;13.390;2023-04-07T05:55:51;101302.31;;;1.11;100.00
36092;BME280;22147;52.388;13.390;2023-04-07T05:58:20;101312.06;;;1.24;100.00
36092;BME280;22147;52.388;13.390;2023-04-07T06:00:49;101310.94;;;1.41;100.00
36092;BME280;22147;52.388;13.390;2023-04-07T06:03:17;101312.00;;;1.57;100.00
36092;BME280;22147;52.388;13.390;2023-04-07T06:05:48;101307.28;;;1.75;100.00
36092;BME280;22147;52.388;13.390;2023-04-07T06:08:19;101310.75;;;1.92;100.00
36092;BME280;22147;52.388;13.390;2023-04-07T06:10:49;101311.25;;;2.11;100.00
36092;BME280;22147;52.388;13.390;2023-04-07T06:13:19;101313.69;;;2.35;100.00
36092;BME280;22147;52.388;13.390;2023-04-07T06:15:49;101313.91;;;2.55;100.00
36092;BME280;22147;52.388;13.390;2023-04-07T06:18:20;101310.47;;;2.70;100.00
36092;BME280;22147;52.388;13.390;2023-04-07T06:20:50;101310.66;;;2.96;100.00
36092;BME280;22147;52.388;13.390;2023-04-07T06:23:20;101316.09;;;3.23;100.00
36092;BME280;22147;52.388;13.390;2023-04-07T06:25:50;101317.84;;;3.44;99.17
36092;BME280;22147;52.388;13.390;2023-04-07T06:28:22;101317.41;;;3.63;97.27
36092;BME280;22147;52.388;13.390;2023-04-07T06:30:52;101320.72;;;3.70;93.90
36092;BME280;22147;52.388;13.390;2023-04-07T06:33:22;101325.16;;;3.76;95.06
36092;BME280;22147;52.388;13.390;2023-04-07T06:35:54;101326.84;;;3.82;96.36
36092;BME280;22147;52.388;13.390;2023-04-07T06:38:23;101326.31;;;3.85;94.56
36092;BME280;22147;52.388;13.390;2023-04-07T06:40:51;101328.78;;;3.82;92.15
36092;BME280;22147;52.388;13.390;2023-04-07T06:43:19;101330.41;;;3.78;92.15
36092;BME280;22147;52.388;13.390;2023-04-07T06:45:48;101327.66;;;3.78;94.37
36092;BME280;22147;52.388;13.390;2023-04-07T06:48:16;101324.09;;;3.82;94.28
36092;BME280;22147;52.388;13.390;2023-04-07T06:50:51;101328.22;;;3.85;92.38
36092;BME280;22147;52.388;13.390;2023-04-07T06:53:21;101324.13;;;3.87;91.84
36092;BME280;22147;52.388;13.390;2023-04-07T06:56:11;101324.97;;;3.93;91.55
36092;BME280;22147;52.388;13.390;2023-04-07T06:58:41;101332.69;;;3.96;93.00
36092;BME280;22147;52.388;13.390;2023-04-07T07:01:12;101325.56;;;4.05;94.66
36092;BME280;22147;52.388;13.390;2023-04-07T07:03:42;101328.59;;;4.14;92.83
36092;BME280;22147;52.388;13.390;2023-04-07T07:06:12;101337.19;;;4.33;92.35
36092;BME280;22147;52.388;13.390;2023-04-07T07:08:42;101326.78;;;4.61;91.03
36092;BME280;22147;52.388;13.390;2023-04-07T07:11:12;101336.72;;;4.87;90.09
36092;BME280;22147;52.388;13.390;2023-04-07T07:13:43;101335.31;;;5.16;87.21
36092;BME280;22147;52.388;13.390;2023-04-07T07:16:14;101336.38;;;5.35;84.78
36092;BME280;22147;52.388;13.390;2023-04-07T07:18:44;101333.56;;;5.61;83.91
36092;BME280;22147;52.388;13.390;2023-04-07T07:21:17;101336.81;;;5.83;81.63
36092;BME280;22147;52.388;13.390;2023-04-07T07:23:48;101341.47;;;5.88;79.51
36092;BME280;22147;52.388;13.390;2023-04-07T07:26:18;101336.34;;;5.56;79.33
36092;BME280;22147;52.388;13.390;2023-04-07T07:28:49;101339.56;;;5.83;76.62
36092;BME280;22147;52.388;13.390;2023-04-07T07:31:19;101339.28;;;5.95;77.48
36092;BME280;22147;52.388;13.390;2023-04-07T07:33:50;101338.19;;;5.86;77.47
36092;BME280;22147;52.388;13.390;2023-04-07T07:36:20;101344.78;;;6.00;78.30
36092;BME280;22147;52.388;13.390;2023-04-07T07:38:51;101344.25;;;5.93;80.47
36092;BME280;22147;52.388;13.390;2023-04-07T07:41:21;101345.28;;;6.07;76.40
36092;BME280;22147;52.388;13.390;2023-04-07T07:43:51;101344.81;;;6.45;74.75
36092;BME280;22147;52.388;13.390;2023-04-07T07:46:22;101342.75;;;6.71;73.16
36092;BME280;22147;52.388;13.390;2023-04-07T07:48:54;101356.75;;;6.35;76.86
36092;BME280;22147;52.388;13.390;2023-04-07T07:51:25;101349.81;;;6.43;76.68
36092;BME280;22147;52.388;13.390;2023-04-07T07:53:56;101353.91;;;5.96;80.29
36092;BME280;22147;52.388;13.390;2023-04-07T07:56:27;101355.13;;;6.29;77.50
36092;BME280;22147;52.388;13.390;2023-04-07T07:58:57;101361.38;;;6.50;76.34
36092;BME280;22147;52.388;13.390;2023-04-07T08:01:28;101357.06;;;6.73;77.87
36092;BME280;22147;52.388;13.390;2023-04-07T08:03:58;101347.59;;;6.84;77.68
36092;BME280;22147;52.388;13.390;2023-04-07T08:06:28;101348.16;;;6.81;76.33
36092;BME280;22147;52.388;13.390;2023-04-07T08:09:00;101347.41;;;6.76;76.53
36092;BME280;22147;52.388;13.390;2023-04-07T08:11:30;101347.41;;;6.70;75.56
36092;BME280;22147;52.388;13.390;2023-04-07T08:14:00;101355.59;;;6.86;72.99
36092;BME280;22147;52.388;13.390;2023-04-07T08:16:30;101356.44;;;6.81;75.91
36092;BME280;22147;52.388;13.390;2023-04-07T08:19:00;101349.16;;;6.96;74.20
36092;BME280;22147;52.388;13.390;2023-04-07T08:21:31;101353.69;;;7.16;72.74
36092;BME280;22147;52.388;13.390;2023-04-07T08:24:01;101351.03;;;7.05;73.84
36092;BME280;22147;52.388;13.390;2023-04-07T08:26:32;101354.59;;;6.71;75.51
36092;BME280;22147;52.388;13.390;2023-04-07T08:29:02;101357.16;;;6.58;74.26
36092;BME280;22147;52.388;13.390;2023-04-07T08:31:32;101350.50;;;6.64;74.31
36092;BME280;22147;52.388;13.390;2023-04-07T08:34:01;101346.25;;;6.82;74.21
36092;BME280;22147;52.388;13.390;2023-04-07T08:36:29;101352.38;;;6.73;73.71
36092;BME280;22147;52.388;13.390;2023-04-07T08:39:00;101360.50;;;6.55;73.85
36092;BME280;22147;52.388;13.390;2023-04-07T08:41:38;101363.69;;;6.72;73.65
36092;BME280;22147;52.388;13.390;2023-04-07T08:44:09;101358.91;;;6.88;73.21
36092;BME280;22147;52.388;13.390;2023-04-07T08:46:41;101359.34;;;7.00;73.47
36092;BME280;22147;52.388;13.390;2023-04-07T08:49:11;101362.00;;;7.10;73.13
36092;BME280;22147;52.388;13.390;2023-04-07T08:51:46;101360.00;;;7.21;72.40
36092;BME280;22147;52.388;13.390;2023-04-07T08:54:17;101365.44;;;7.31;70.68
36092;BME280;22147;52.388;13.390;2023-04-07T08:56:48;101369.59;;;7.29;68.24
36092;BME280;22147;52.388;13.390;2023-04-07T08:59:18;101369.50;;;7.10;62.86
36092;BME280;22147;52.388;13.390;2023-04-07T09:01:53;101375.28;;;7.08;61.72
36092;BME280;22147;52.388;13.390;2023-04-07T09:04:24;101371.03;;;7.50;58.73
36092;BME280;22147;52.388;13.390;2023-04-07T09:06:55;101370.03;;;7.41;60.10
36092;BME280;22147;52.388;13.390;2023-04-07T09:09:22;101372.81;;;7.89;54.27
36092;BME280;22147;52.388;13.390;2023-04-07T09:11:53;101377.28;;;7.61;57.63
36092;BME280;22147;52.388;13.390;2023-04-07T09:14:23;101370.69;;;7.57;55.43
36092;BME280;22147;52.388;13.390;2023-04-07T09:16:54;101381.81;;;7.52;57.80
36092;BME280;22147;52.388;13.390;2023-04-07T09:19:26;101376.34;;;7.18;55.68
36092;BME280;22147;52.388;13.390;2023-04-07T09:21:55;101369.63;;;7.24;56.79
36092;BME280;22147;52.388;13.390;2023-04-07T09:24:28;101371.75;;;7.37;55.63
36092;BME280;22147;52.388;13.390;2023-04-07T09:27:17;101369.25;;;7.36;56.74
36092;BME280;22147;52.388;13.390;2023-04-07T09:29:48;101378.50;;;6.86;59.67
36092;BME280;22147;52.388;13.390;2023-04-07T09:32:36;101371.31;;;6.85;57.49
36092;BME280;22147;52.388;13.390;2023-04-07T09:35:12;101379.59;;;6.41;60.96
36092;BME280;22147;52.388;13.390;2023-04-07T09:37:42;101391.31;;;6.17;63.42
36092;BME280;22147;52.388;13.390;2023-04-07T09:40:25;101370.25;;;6.42;69.20
36092;BME280;22147;52.388;13.390;2023-04-07T09:42:56;101376.78;;;6.56;67.30
36092;BME280;22147;52.388;13.390;2023-04-07T09:45:30;101375.88;;;6.71;67.80
36092;BME280;22147;52.388;13.390;2023-04-07T09:48:19;101385.81;;;6.67;64.80
36092;BME280;22147;52.388;13.390;2023-04-07T09:50:50;101382.53;;;6.60;64.10
36092;BME280;22147;52.388;13.390;2023-04-07T09:53:41;101384.25;;;6.50;62.83
36092;BME280;22147;52.388;13.390;2023-04-07T09:56:15;101386.31;;;6.29;64.73
36092;BME280;22147;52.388;13.390;2023-04-07T09:58:51;101386.03;;;6.26;64.81
36092;BME280;22147;52.388;13.390;2023-04-07T10:01:22;101387.13;;;6.30;68.61
36092;BME280;22147;52.388;13.390;2023-04-07T10:03:51;101387.06;;;6.40;65.28
36092;BME280;22147;52.388;13.390;2023-04-07T10:06:22;101381.13;;;6.62;63.95
36092;BME280;22147;52.388;13.390;2023-04-07T10:08:52;101390.03;;;6.54;63.80
36092;BME280;22147;52.388;13.390;2023-04-07T10:11:22;101395.44;;;6.20;63.68
36092;BME280;22147;52.388;13.390;2023-04-07T10:13:52;101384.31;;;6.40;64.99
36092;BME280;22147;52.388;13.390;2023-04-07T10:16:24;101387.53;;;6.58;63.82
36092;BME280;22147;52.388;13.390;2023-04-07T10:18:54;101387.72;;;6.71;60.91
36092;BME280;22147;52.388;13.390;2023-04-07T10:21:25;101382.63;;;6.89;61.75
36092;BME280;22147;52.388;13.390;2023-04-07T10:26:52;101389.78;;;6.50;62.48
36092;BME280;22147;52.388;13.390;2023-04-07T10:29:34;101391.00;;;6.29;61.57
36092;BME280;22147;52.388;13.390;2023-04-07T10:32:08;101397.97;;;6.11;61.70
36092;BME280;22147;52.388;13.390;2023-04-07T10:37:24;101397.34;;;6.24;62.03
36092;BME280;22147;52.388;13.390;2023-04-07T10:42:50;101394.53;;;6.35;64.06
36092;BME280;22147;52.388;13.390;2023-04-07T10:48:21;101380.84;;;6.69;58.94
36092;BME280;22147;52.388;13.390;2023-04-07T10:51:13;101398.59;;;6.47;57.86
36092;BME280;22147;52.388;13.390;2023-04-07T10:54:20;101397.28;;;6.35;56.44
36092;BME280;22147;52.388;13.390;2023-04-07T10:57:12;101389.06;;;6.24;55.96
36092;BME280;22147;52.388;13.390;2023-04-07T11:02:39;101385.06;;;6.56;58.69
36092;BME280;22147;52.388;13.390;2023-04-07T11:05:20;101387.50;;;6.63;59.26
36092;BME280;22147;52.388;13.390;2023-04-07T11:07:53;101381.22;;;6.52;60.68
36092;BME280;22147;52.388;13.390;2023-04-07T11:10:26;101380.44;;;6.41;59.79
36092;BME280;22147;52.388;13.390;2023-04-07T11:13:05;101378.22;;;6.43;61.46
36092;BME280;22147;52.388;13.390;2023-04-07T11:15:37;101378.97;;;6.99;59.07
36092;BME280;22147;52.388;13.390;2023-04-07T11:18:14;101381.06;;;7.12;60.92
36092;BME280;22147;52.388;13.390;2023-04-07T11:20:50;101380.19;;;7.17;62.37
36092;BME280;22147;52.388;13.390;2023-04-07T11:23:22;101380.69;;;6.89;65.86
36092;BME280;22147;52.388;13.390;2023-04-07T11:26:01;101375.81;;;7.16;67.96
36092;BME280;22147;52.388;13.390;2023-04-07T11:28:32;101378.78;;;6.40;71.79
36092;BME280;22147;52.388;13.390;2023-04-07T11:31:03;101379.47;;;6.66;75.98
36092;BME280;22147;52.388;13.390;2023-04-07T11:33:33;101367.03;;;6.69;75.49
36092;BME280;22147;52.388;13.390;2023-04-07T11:36:06;101375.88;;;6.66;80.54
36092;BME280;22147;52.388;13.390;2023-04-07T11:38:37;101370.56;;;6.80;85.69
36092;BME280;22147;52.388;13.390;2023-04-07T11:41:15;101380.38;;;6.57;86.70
36092;BME280;22147;52.388;13.390;2023-04-07T11:43:44;101380.50;;;6.31;92.56
36092;BME280;22147;52.388;13.390;2023-04-07T11:46:17;101378.13;;;6.04;94.76
36092;BME280;22147;52.388;13.390;2023-04-07T11:48:47;101376.53;;;5.77;100.00
36092;BME280;22147;52.388;13.390;2023-04-07T11:51:20;101379.81;;;5.95;99.91
36092;BME280;22147;52.388;13.390;2023-04-07T11:53:56;101376.78;;;6.01;100.00
36092;BME280;22147;52.388;13.390;2023-04-07T11:56:26;101377.88;;;5.80;100.00
36092;BME280;22147;52.388;13.390;2023-04-07T11:58:56;101372.94;;;5.77;100.00
36092;BME280;22147;52.388;13.390;2023-04-07T12:01:40;101380.91;;;6.04;100.00
36092;BME280;22147;52.388;13.390;2023-04-07T12:04:12;101372.34;;;6.00;100.00
36092;BME280;22147;52.388;13.390;2023-04-07T12:06:45;101375.63;;;6.07;100.00
36092;BME280;22147;52.388;13.390;2023-04-07T12:09:33;101370.59;;;6.25;100.00
36092;BME280;22147;52.388;13.390;2023-04-07T12:12:09;101380.50;;;6.31;100.00
36092;BME280;22147;52.388;13.390;2023-04-07T12:14:43;101383.03;;;6.17;100.00
36092;BME280;22147;52.388;13.390;2023-04-07T12:17:25;101378.06;;;6.19;100.00
36092;BME280;22147;52.388;13.390;2023-04-07T12:19:56;101379.19;;;6.18;100.00
36092;BME280;22147;52.388;13.390;2023-04-07T12:22:26;101378.38;;;6.13;100.00
36092;BME280;22147;52.388;13.390;2023-04-07T12:24:57;101370.72;;;5.99;100.00
36092;BME280;22147;52.388;13.390;2023-04-07T12:27:27;101370.13;;;6.02;100.00
36092;BME280;22147;52.388;13.390;2023-04-07T12:30:12;101373.53;;;5.74;100.00
36092;BME280;22147;52.388;13.390;2023-04-07T12:32:42;101376.03;;;5.60;100.00
36092;BME280;22147;52.388;13.390;2023-04-07T12:35:13;101372.72;;;5.58;100.00
36092;BME280;22147;52.388;13.390;2023-04-07T12:37:44;101372.47;;;5.28;100.00
36092;BME280;22147;52.388;13.390;2023-04-07T12:40:18;101376.06;;;5.34;100.00
36092;BME280;22147;52.388;13.390;2023-04-07T12:42:48;101376.34;;;5.33;100.00
36092;BME280;22147;52.388;13.390;2023-04-07T12:45:19;101374.41;;;5.33;100.00
36092;BME280;22147;52.388;13.390;2023-04-07T12:47:49;101379.34;;;5.41;100.00
36092;BME280;22147;52.388;13.390;2023-04-07T12:50:19;101380.47;;;5.45;100.00
36092;BME280;22147;52.388;13.390;2023-04-07T12:52:50;101379.94;;;5.02;100.00
36092;BME280;22147;52.388;13.390;2023-04-07T12:55:22;101371.69;;;5.02;100.00
36092;BME280;22147;52.388;13.390;2023-04-07T12:57:52;101376.09;;;4.98;100.00
36092;BME280;22147;52.388;13.390;2023-04-07T13:00:24;101384.31;;;5.03;100.00
36092;BME280;22147;52.388;13.390;2023-04-07T13:02:54;101379.09;;;5.07;100.00
36092;BME280;22147;52.388;13.390;2023-04-07T13:05:25;101381.03;;;4.86;100.00
36092;BME280;22147;52.388;13.390;2023-04-07T13:07:56;101380.19;;;4.90;100.00
36092;BME280;22147;52.388;13.390;2023-04-07T13:10:26;101381.56;;;4.78;100.00
36092;BME280;22147;52.388;13.390;2023-04-07T13:12:56;101376.88;;;4.78;100.00
36092;BME280;22147;52.388;13.390;2023-04-07T13:15:27;101381.81;;;4.71;100.00
36092;BME280;22147;52.388;13.390;2023-04-07T13:17:58;101368.34;;;4.80;100.00
36092;BME280;22147;52.388;13.390;2023-04-07T13:20:28;101378.00;;;4.72;100.00
36092;BME280;22147;52.388;13.390;2023-04-07T13:22:59;101366.38;;;4.49;100.00